createdAt,value
2022-08-24T00:00:41.673Z,2.50
2022-08-24T00:03:11.936Z,2.70
2022-08-24T00:05:39.903Z,2.50
2022-08-24T00:08:07.845Z,2.80
2022-08-24T00:10:35.831Z,3.10
2022-08-24T00:13:03.544Z,3.30
2022-08-24T00:15:31.334Z,2.63
2022-08-24T00:18:00.449Z,2.80
2022-08-24T00:20:29.212Z,2.87
2022-08-24T00:22:56.969Z,3.33
2022-08-24T00:25:24.892Z,3.23
2022-08-24T00:27:52.620Z,2.60
2022-08-24T00:30:21.837Z,2.60
2022-08-24T00:32:49.909Z,2.43
2022-08-24T00:35:20.086Z,1.93
2022-08-24T00:37:49.525Z,2.23
2022-08-24T00:40:21.714Z,2.67
2022-08-24T00:42:50.646Z,3.00
2022-08-24T00:45:20.167Z,3.60
2022-08-24T00:47:52.506Z,2.80
2022-08-24T00:50:26.411Z,2.77
2022-08-24T00:52:57.923Z,2.90
2022-08-24T00:55:31.775Z,3.00
2022-08-24T00:58:03.715Z,4.10
2022-08-24T01:00:37.716Z,2.83
2022-08-24T01:03:07.289Z,3.23
2022-08-24T01:05:39.314Z,2.50
2022-08-24T01:08:09.985Z,2.90
2022-08-24T01:10:43.060Z,3.70
2022-08-24T01:13:12.962Z,2.77
2022-08-24T01:15:42.770Z,3.30
2022-08-24T01:18:34.491Z,3.63
2022-08-24T01:21:10.715Z,2.97
2022-08-24T01:23:42.559Z,3.73
2022-08-24T01:26:15.538Z,3.20
2022-08-24T01:28:46.497Z,3.33
2022-08-24T01:31:14.572Z,3.60
2022-08-24T01:33:42.543Z,3.83
2022-08-24T01:36:15.818Z,3.20
2022-08-24T01:38:45.593Z,3.90
2022-08-24T01:41:13.314Z,3.30
2022-08-24T01:43:41.187Z,4.87
2022-08-24T01:46:10.517Z,3.83
2022-08-24T01:48:38.613Z,3.70
2022-08-24T01:51:06.626Z,3.53
2022-08-24T01:53:34.455Z,4.20
2022-08-24T01:56:04.053Z,3.80
2022-08-24T01:58:31.758Z,4.00
2022-08-24T02:00:59.766Z,4.20
2022-08-24T02:03:27.684Z,4.17
2022-08-24T02:05:58.880Z,4.23
2022-08-24T02:08:26.927Z,4.43
2022-08-24T02:10:56.643Z,3.90
2022-08-24T02:13:27.068Z,4.40
2022-08-24T02:15:54.860Z,4.87
2022-08-24T02:18:22.659Z,4.57
2022-08-24T02:20:50.730Z,4.00
2022-08-24T02:23:18.666Z,3.83
2022-08-24T02:25:46.431Z,5.93
2022-08-24T02:28:14.452Z,4.33
2022-08-24T02:30:44.244Z,4.70
2022-08-24T02:33:12.877Z,4.63
2022-08-24T02:35:42.139Z,4.50
2022-08-24T02:38:10.120Z,3.40
2022-08-24T02:40:38.843Z,4.77
2022-08-24T02:43:06.818Z,4.57
2022-08-24T02:45:38.818Z,4.70
2022-08-24T02:48:08.556Z,4.20
2022-08-24T02:50:40.248Z,4.33
2022-08-24T02:53:08.174Z,4.73
2022-08-24T02:55:36.960Z,4.17
2022-08-24T02:58:04.666Z,4.53
2022-08-24T03:00:32.857Z,4.43
2022-08-24T03:03:01.728Z,4.30
2022-08-24T03:05:31.143Z,3.97
2022-08-24T03:07:58.884Z,4.63
2022-08-24T03:10:28.763Z,4.13
2022-08-24T03:12:58.859Z,4.53
2022-08-24T03:15:27.147Z,4.40
2022-08-24T03:17:54.924Z,4.40
2022-08-24T03:20:24.450Z,4.10
2022-08-24T03:22:54.040Z,4.83
2022-08-24T03:25:24.642Z,4.40
2022-08-24T03:27:53.102Z,4.40
2022-08-24T03:30:21.835Z,4.40
2022-08-24T03:32:50.316Z,4.40
2022-08-24T03:35:19.219Z,4.73
2022-08-24T03:37:47.780Z,4.70
2022-08-24T03:40:22.732Z,4.63
2022-08-24T03:42:53.247Z,4.93
2022-08-24T03:45:22.195Z,5.13
2022-08-24T03:47:50.195Z,3.97
2022-08-24T03:50:18.014Z,4.33
2022-08-24T03:52:45.780Z,4.78
2022-08-24T03:55:13.737Z,4.70
2022-08-24T03:57:42.887Z,5.00
2022-08-24T04:00:13.739Z,4.93
2022-08-24T04:02:41.560Z,4.77
2022-08-24T04:05:10.695Z,4.17
2022-08-24T04:07:38.416Z,5.30
2022-08-24T04:10:06.998Z,4.53
2022-08-24T04:12:34.790Z,4.50
2022-08-24T04:15:04.199Z,4.87
2022-08-24T04:17:31.928Z,6.50
2022-08-24T04:19:59.988Z,5.00
2022-08-24T04:22:29.714Z,5.60
2022-08-24T04:24:58.020Z,4.20
2022-08-24T04:27:25.851Z,4.20
2022-08-24T04:29:53.569Z,5.20
2022-08-24T04:32:22.760Z,5.50
2022-08-24T04:34:50.494Z,5.53
2022-08-24T04:37:18.630Z,4.60
2022-08-24T04:39:54.999Z,4.87
2022-08-24T04:42:22.776Z,4.93
2022-08-24T04:44:51.188Z,5.63
2022-08-24T04:47:18.955Z,5.13
2022-08-24T04:49:48.028Z,5.73
2022-08-24T04:52:16.220Z,5.20
2022-08-24T04:54:44.009Z,4.97
2022-08-24T04:57:14.748Z,5.70
2022-08-24T04:59:45.595Z,4.73
2022-08-24T05:02:13.554Z,5.00
2022-08-24T05:04:41.396Z,4.93
2022-08-24T05:07:10.487Z,5.13
2022-08-24T05:09:38.205Z,5.50
2022-08-24T05:12:06.542Z,5.07
2022-08-24T05:14:34.324Z,4.97
2022-08-24T05:17:02.967Z,5.37
2022-08-24T05:19:30.850Z,5.23
2022-08-24T05:21:58.750Z,5.20
2022-08-24T05:24:28.477Z,5.07
2022-08-24T05:26:56.334Z,5.40
2022-08-24T05:29:24.073Z,4.83
2022-08-24T05:31:52.224Z,5.30
2022-08-24T05:34:20.451Z,4.60
2022-08-24T05:36:49.483Z,4.70
2022-08-24T05:39:17.238Z,5.90
2022-08-24T05:41:47.771Z,4.47
2022-08-24T05:44:17.799Z,5.07
2022-08-24T05:46:46.118Z,4.37
2022-08-24T05:49:13.943Z,4.80
2022-08-24T05:51:42.582Z,6.70
2022-08-24T05:54:10.420Z,4.40
2022-08-24T05:56:38.344Z,4.83
2022-08-24T05:59:07.416Z,4.90
2022-08-24T06:01:35.547Z,5.33
2022-08-24T06:04:03.719Z,4.57
2022-08-24T06:06:31.715Z,4.90
2022-08-24T06:09:01.509Z,4.73
2022-08-24T06:11:31.208Z,4.77
2022-08-24T06:14:01.332Z,4.60
2022-08-24T06:16:30.556Z,5.00
2022-08-24T06:18:58.539Z,4.73
2022-08-24T06:21:28.658Z,5.37
2022-08-24T06:23:57.223Z,5.23
2022-08-24T06:26:42.877Z,4.30
2022-08-24T06:29:12.871Z,6.10
2022-08-24T06:31:44.314Z,5.73
2022-08-24T06:34:16.766Z,4.80
2022-08-24T06:36:44.983Z,4.73
2022-08-24T06:39:14.075Z,4.53
2022-08-24T06:41:43.117Z,5.40
2022-08-24T06:44:10.872Z,5.17
2022-08-24T06:46:38.868Z,4.10
2022-08-24T06:49:08.005Z,4.27
2022-08-24T06:51:35.874Z,4.33
2022-08-24T06:54:03.638Z,3.60
2022-08-24T06:56:31.453Z,3.77
2022-08-24T06:59:00.799Z,4.10
2022-08-24T07:01:29.222Z,3.90
2022-08-24T07:03:57.652Z,3.50
2022-08-24T07:06:27.373Z,4.90
2022-08-24T07:08:56.444Z,3.00
2022-08-24T07:11:25.457Z,3.20
2022-08-24T07:13:53.273Z,4.37
2022-08-24T07:16:22.354Z,4.10
2022-08-24T07:18:51.304Z,3.40
2022-08-24T07:21:19.739Z,3.53
2022-08-24T07:23:49.902Z,3.65
2022-08-24T07:26:22.729Z,3.70
2022-08-24T07:28:51.126Z,3.60
2022-08-24T07:31:18.959Z,3.23
2022-08-24T07:33:46.881Z,3.40
2022-08-24T07:36:19.275Z,3.70
2022-08-24T07:38:53.115Z,3.20
2022-08-24T07:44:14.548Z,4.33
2022-08-24T07:46:43.266Z,3.00
2022-08-24T07:49:29.273Z,3.17
2022-08-24T07:52:00.257Z,3.40
2022-08-24T07:54:29.682Z,3.17
2022-08-24T07:56:59.903Z,2.90
2022-08-24T07:59:27.698Z,2.90
2022-08-24T08:01:55.635Z,3.03
2022-08-24T08:04:25.142Z,2.97
2022-08-24T08:06:53.134Z,3.13
2022-08-24T08:09:21.090Z,2.97
2022-08-24T08:11:50.360Z,3.47
2022-08-24T08:14:18.567Z,2.93
2022-08-24T08:16:46.608Z,2.80
2022-08-24T08:19:14.552Z,2.90
2022-08-24T08:22:01.532Z,3.00
2022-08-24T08:24:29.585Z,3.17
2022-08-24T08:27:00.265Z,2.80
2022-08-24T08:29:28.925Z,3.37
2022-08-24T08:31:56.893Z,2.90
2022-08-24T08:34:24.703Z,2.67
2022-08-24T08:36:52.953Z,3.03
2022-08-24T08:39:22.888Z,3.10
2022-08-24T08:42:14.836Z,2.80
2022-08-24T08:45:01.196Z,2.60
2022-08-24T08:47:50.106Z,2.40
2022-08-24T08:50:22.463Z,2.63
2022-08-24T08:53:32.923Z,2.30
2022-08-24T08:56:07.074Z,2.80
2022-08-24T08:58:59.316Z,3.40
2022-08-24T09:01:34.698Z,2.60
2022-08-24T09:04:36.638Z,2.10
2022-08-24T09:07:26.141Z,2.60
2022-08-24T09:10:14.551Z,3.10
2022-08-24T09:12:54.542Z,2.57
2022-08-24T09:15:39.330Z,2.73
2022-08-24T09:18:24.758Z,2.73
2022-08-24T09:21:21.916Z,2.80
2022-08-24T09:24:00.432Z,2.57
2022-08-24T09:26:32.958Z,2.50
2022-08-24T09:29:09.818Z,2.33
2022-08-24T09:31:53.196Z,2.60
2022-08-24T09:34:40.014Z,2.50
2022-08-24T09:37:34.117Z,2.37
2022-08-24T09:40:12.506Z,2.03
2022-08-24T09:43:17.925Z,2.30
2022-08-24T09:46:11.409Z,2.40
2022-08-24T09:49:34.056Z,2.90
2022-08-24T09:52:32.747Z,2.30
2022-08-24T09:55:30.252Z,1.80
2022-08-24T09:58:11.655Z,2.30
2022-08-24T10:00:46.821Z,2.70
2022-08-24T10:03:36.268Z,2.37
2022-08-24T10:06:18.312Z,2.40
2022-08-24T10:09:01.436Z,1.90
2022-08-24T10:11:41.496Z,2.00
2022-08-24T10:14:20.068Z,2.53
2022-08-24T10:17:01.436Z,2.40
2022-08-24T10:19:49.035Z,2.57
2022-08-24T10:22:29.084Z,2.50
2022-08-24T10:25:11.498Z,2.30
2022-08-24T10:27:50.603Z,2.30
2022-08-24T10:31:04.735Z,2.17
2022-08-24T10:33:38.430Z,2.20
2022-08-24T10:36:21.712Z,2.83
2022-08-24T10:39:08.601Z,2.23
2022-08-24T10:42:03.622Z,1.90
2022-08-24T10:44:47.142Z,2.67
2022-08-24T10:47:22.016Z,2.50
2022-08-24T10:50:11.949Z,2.30
2022-08-24T10:53:02.478Z,1.87
2022-08-24T10:55:33.494Z,1.97
2022-08-24T10:58:35.032Z,1.70
2022-08-24T11:01:16.917Z,2.63
2022-08-24T11:03:54.190Z,1.60
2022-08-24T11:06:24.058Z,1.60
2022-08-24T11:08:54.918Z,1.57
2022-08-24T11:11:29.554Z,2.13
2022-08-24T11:14:01.571Z,2.00
2022-08-24T11:16:33.062Z,2.40
2022-08-24T11:19:02.946Z,2.22
2022-08-24T11:21:40.424Z,2.40
2022-08-24T11:24:12.286Z,1.93
2022-08-24T11:26:55.235Z,1.73
2022-08-24T11:29:30.595Z,2.00
2022-08-24T11:31:59.604Z,2.30
2022-08-24T11:34:39.549Z,2.00
2022-08-24T11:37:15.291Z,2.63
2022-08-24T11:39:43.117Z,2.37
2022-08-24T11:42:18.875Z,2.47
2022-08-24T11:44:54.914Z,1.70
2022-08-24T11:47:48.255Z,2.23
2022-08-24T11:50:26.353Z,2.43
2022-08-24T11:53:04.069Z,2.30
2022-08-24T11:55:47.032Z,2.10
2022-08-24T11:58:24.438Z,2.00
2022-08-24T12:00:59.648Z,1.83
2022-08-24T12:03:44.477Z,2.43
2022-08-24T12:06:23.574Z,2.23
2022-08-24T12:09:06.219Z,1.63
2022-08-24T12:11:42.651Z,2.53
2022-08-24T12:14:17.632Z,2.33
2022-08-24T12:16:54.564Z,2.20
2022-08-24T12:19:26.812Z,1.97
2022-08-24T12:21:57.810Z,2.10
2022-08-24T12:24:32.591Z,2.33
2022-08-24T12:27:08.534Z,2.47
2022-08-24T12:29:41.770Z,2.07
2022-08-24T12:32:15.750Z,2.30
2022-08-24T12:34:55.882Z,1.90
2022-08-24T12:37:32.358Z,1.77
2022-08-24T12:40:14.935Z,2.20
2022-08-24T12:42:52.204Z,1.70
2022-08-24T12:45:22.211Z,2.10
2022-08-24T12:47:58.146Z,2.60
2022-08-24T12:50:33.339Z,2.63
2022-08-24T12:53:36.739Z,2.23
2022-08-24T12:56:24.023Z,2.10
2022-08-24T12:59:06.405Z,2.07
2022-08-24T13:01:38.800Z,1.97
2022-08-24T13:04:13.399Z,2.40
2022-08-24T13:06:46.985Z,3.00
2022-08-24T13:09:30.898Z,1.70
2022-08-24T13:12:01.185Z,2.40
2022-08-24T13:14:30.580Z,2.27
2022-08-24T13:17:18.891Z,2.07
2022-08-24T13:20:20.021Z,2.20
2022-08-24T13:23:00.966Z,3.27
2022-08-24T13:25:57.612Z,2.20
2022-08-24T13:28:45.151Z,2.23
2022-08-24T13:31:20.563Z,2.23
2022-08-24T13:33:51.270Z,1.73
2022-08-24T13:36:48.081Z,2.10
2022-08-24T13:39:50.655Z,2.17
2022-08-24T13:42:28.576Z,1.97
2022-08-24T13:45:15.924Z,2.30
2022-08-24T13:47:53.349Z,2.63
2022-08-24T13:50:39.580Z,2.07
2022-08-24T13:53:33.878Z,2.55
2022-08-24T13:56:30.281Z,2.37
2022-08-24T13:59:09.620Z,2.33
2022-08-24T14:01:50.959Z,2.10
2022-08-24T14:04:38.192Z,2.00
2022-08-24T14:07:15.716Z,2.23
2022-08-24T14:10:02.425Z,2.20
2022-08-24T14:12:54.009Z,2.00
2022-08-24T14:15:29.917Z,2.23
2022-08-24T14:18:11.336Z,2.20
2022-08-24T14:21:01.090Z,2.30
2022-08-24T14:23:47.409Z,2.10
2022-08-24T14:27:01.955Z,1.97
2022-08-24T14:29:36.665Z,3.40
2022-08-24T14:32:44.488Z,2.70
2022-08-24T14:35:31.319Z,1.83
2022-08-24T14:38:17.210Z,2.10
2022-08-24T14:40:59.478Z,2.77
2022-08-24T14:43:35.566Z,2.10
2022-08-24T14:46:12.921Z,2.30
2022-08-24T14:48:50.665Z,3.03
2022-08-24T14:51:43.877Z,2.13
2022-08-24T14:54:20.931Z,2.13
2022-08-24T14:57:03.169Z,2.57
2022-08-24T14:59:45.464Z,2.37
2022-08-24T15:02:44.297Z,2.03
2022-08-24T15:05:21.828Z,1.90
2022-08-24T15:07:56.625Z,2.27
2022-08-24T15:10:26.960Z,2.03
2022-08-24T15:13:03.384Z,2.30
2022-08-24T15:15:36.367Z,2.40
2022-08-24T15:18:15.627Z,3.03
2022-08-24T15:21:00.078Z,2.17
2022-08-24T15:23:49.413Z,2.17
2022-08-24T15:26:24.523Z,2.47
2022-08-24T15:28:56.641Z,2.43
2022-08-24T15:31:29.223Z,2.50
2022-08-24T15:34:00.787Z,2.63
2022-08-24T15:36:32.318Z,2.53
2022-08-24T15:39:00.839Z,2.27
2022-08-24T15:41:31.775Z,2.83
2022-08-24T15:44:03.491Z,2.67
2022-08-24T15:46:35.985Z,2.40
2022-08-24T15:49:08.668Z,2.10
2022-08-24T15:51:47.499Z,2.60
2022-08-24T15:54:30.980Z,2.13
2022-08-24T15:57:02.511Z,2.33
2022-08-24T15:59:33.079Z,2.47
2022-08-24T16:02:29.043Z,2.20
2022-08-24T16:05:14.281Z,2.17
2022-08-24T16:08:10.307Z,2.63
2022-08-24T16:10:41.828Z,3.23
2022-08-24T16:13:18.451Z,2.40
2022-08-24T16:15:48.903Z,2.80
2022-08-24T16:18:19.356Z,2.50
2022-08-24T16:20:49.454Z,2.57
2022-08-24T16:23:25.537Z,2.30
2022-08-24T16:26:22.770Z,2.57
2022-08-24T16:28:52.184Z,3.03
2022-08-24T16:31:47.917Z,2.10
2022-08-24T16:34:22.846Z,2.60
2022-08-24T16:36:50.876Z,2.00
2022-08-24T16:39:18.668Z,2.70
2022-08-24T16:41:47.997Z,2.47
2022-08-24T16:44:15.816Z,2.40
2022-08-24T16:46:48.052Z,2.80
2022-08-24T16:49:16.088Z,4.10
2022-08-24T16:51:45.578Z,2.53
2022-08-24T16:54:13.980Z,2.30
2022-08-24T16:56:42.733Z,2.47
2022-08-24T16:59:18.484Z,2.60
2022-08-24T17:01:49.609Z,2.77
2022-08-24T17:04:17.918Z,2.00
2022-08-24T17:06:45.942Z,2.63
2022-08-24T17:09:13.786Z,2.17
2022-08-24T17:11:42.252Z,2.10
2022-08-24T17:14:10.866Z,2.63
2022-08-24T17:16:40.270Z,2.70
2022-08-24T17:19:11.540Z,2.10
2022-08-24T17:21:40.090Z,2.40
2022-08-24T17:24:09.421Z,2.73
2022-08-24T17:26:37.875Z,2.50
2022-08-24T17:29:18.631Z,3.40
2022-08-24T17:31:50.435Z,2.40
2022-08-24T17:34:20.358Z,3.07
2022-08-24T17:36:48.986Z,3.00
2022-08-24T17:39:18.781Z,2.63
2022-08-24T17:41:47.277Z,2.70
2022-08-24T17:44:19.582Z,2.67
2022-08-24T17:46:50.347Z,3.10
2022-08-24T17:49:19.199Z,2.80
2022-08-24T17:51:48.418Z,2.60
2022-08-24T17:54:16.470Z,2.30
2022-08-24T17:56:46.540Z,2.70
2022-08-24T17:59:23.513Z,2.20
2022-08-24T18:01:54.718Z,2.43
2022-08-24T18:04:25.564Z,2.47
2022-08-24T18:06:53.927Z,2.38
2022-08-24T18:09:28.776Z,2.33
2022-08-24T18:11:58.836Z,2.67
2022-08-24T18:14:26.770Z,2.27
2022-08-24T18:16:57.970Z,2.30
2022-08-24T18:19:26.466Z,2.23
2022-08-24T18:21:54.353Z,2.10
2022-08-24T18:24:22.113Z,2.70
2022-08-24T18:26:50.540Z,2.30
2022-08-24T18:29:21.273Z,2.10
2022-08-24T18:31:49.645Z,2.50
2022-08-24T18:34:21.775Z,2.57
2022-08-24T18:36:50.374Z,2.60
2022-08-24T18:39:18.366Z,2.50
2022-08-24T18:41:53.814Z,2.30
2022-08-24T18:44:31.084Z,2.60
2022-08-24T18:47:02.126Z,2.70
2022-08-24T18:49:31.910Z,2.80
2022-08-24T18:52:01.322Z,2.37
2022-08-24T18:54:36.719Z,2.60
2022-08-24T18:57:07.005Z,2.40
2022-08-24T18:59:40.614Z,3.10
2022-08-24T19:02:30.549Z,2.57
2022-08-24T19:05:07.575Z,2.80
2022-08-24T19:07:41.047Z,2.70
2022-08-24T19:10:10.879Z,2.40
2022-08-24T19:12:42.478Z,2.83
2022-08-24T19:15:29.381Z,2.20
2022-08-24T19:18:03.798Z,2.10
2022-08-24T19:20:35.119Z,2.43
2022-08-24T19:23:09.548Z,2.97
2022-08-24T19:25:38.518Z,2.27
2022-08-24T19:28:07.168Z,2.60
2022-08-24T19:30:35.470Z,2.13
2022-08-24T19:33:04.387Z,2.40
2022-08-24T19:35:35.667Z,2.53
2022-08-24T19:38:03.510Z,2.20
2022-08-24T19:40:31.873Z,2.50
2022-08-24T19:43:03.522Z,2.40
2022-08-24T19:45:49.883Z,2.30
2022-08-24T19:48:17.951Z,2.70
2022-08-24T19:50:47.070Z,2.80
2022-08-24T19:53:14.970Z,2.27
2022-08-24T19:55:42.750Z,2.33
2022-08-24T19:58:23.769Z,2.40
2022-08-24T20:00:57.230Z,2.70
2022-08-24T20:03:25.629Z,2.60
2022-08-24T20:05:55.555Z,2.30
2022-08-24T20:08:23.395Z,2.53
2022-08-24T20:10:53.072Z,2.23
2022-08-24T20:13:20.981Z,2.43
2022-08-24T20:15:48.932Z,2.83
2022-08-24T20:18:17.167Z,2.67
2022-08-24T20:20:46.412Z,2.37
2022-08-24T20:23:18.407Z,2.47
2022-08-24T20:25:46.499Z,2.37
2022-08-24T20:28:34.745Z,2.70
2022-08-24T20:31:03.266Z,3.10
2022-08-24T20:33:31.076Z,2.57
2022-08-24T20:35:59.391Z,2.87
2022-08-24T20:38:31.694Z,2.53
2022-08-24T20:41:00.213Z,2.43
2022-08-24T20:43:28.374Z,3.20
2022-08-24T20:45:57.669Z,2.87
2022-08-24T20:48:30.285Z,2.77
2022-08-24T20:50:58.700Z,2.67
2022-08-24T20:53:30.716Z,2.20
2022-08-24T20:56:02.311Z,4.57
2022-08-24T20:58:30.319Z,3.23
2022-08-24T21:00:58.577Z,2.83
2022-08-24T21:03:26.452Z,3.50
2022-08-24T21:05:54.655Z,3.03
2022-08-24T21:08:22.730Z,3.65
2022-08-24T21:10:51.824Z,3.43
2022-08-24T21:13:22.339Z,3.00
2022-08-24T21:15:51.740Z,3.30
2022-08-24T21:18:20.357Z,2.90
2022-08-24T21:21:03.495Z,3.70
2022-08-24T21:23:33.096Z,3.27
2022-08-24T21:26:03.495Z,2.90
2022-08-24T21:28:31.983Z,4.10
2022-08-24T21:31:05.113Z,3.73
2022-08-24T21:33:51.298Z,3.93
2022-08-24T21:36:20.512Z,3.53
2022-08-24T21:38:48.723Z,3.70
2022-08-24T21:41:18.006Z,3.73
2022-08-24T21:43:45.797Z,3.67
2022-08-24T21:46:14.274Z,4.00
2022-08-24T21:48:42.388Z,3.87
2022-08-24T21:51:10.424Z,4.17
2022-08-24T21:53:38.276Z,4.63
2022-08-24T21:56:06.403Z,4.17
2022-08-24T21:58:35.519Z,3.77
2022-08-24T22:01:05.390Z,4.57
2022-08-24T22:03:40.088Z,4.90
2022-08-24T22:06:09.469Z,4.07
2022-08-24T22:08:37.920Z,4.00
2022-08-24T22:11:07.901Z,4.83
2022-08-24T22:13:38.204Z,3.80
2022-08-24T22:16:06.979Z,4.30
2022-08-24T22:18:35.918Z,4.63
2022-08-24T22:21:07.552Z,5.07
2022-08-24T22:23:35.527Z,5.10
2022-08-24T22:26:05.537Z,3.80
2022-08-24T22:28:34.427Z,4.80
2022-08-24T22:31:03.718Z,4.73
2022-08-24T22:33:31.512Z,5.93
2022-08-24T22:35:59.277Z,3.87
2022-08-24T22:38:27.003Z,4.40
2022-08-24T22:40:55.697Z,4.60
2022-08-24T22:43:25.414Z,4.90
2022-08-24T22:45:53.202Z,5.00
2022-08-24T22:48:22.273Z,5.50
2022-08-24T22:50:54.446Z,4.27
2022-08-24T22:53:23.202Z,5.30
2022-08-24T22:55:50.945Z,5.07
2022-08-24T22:58:18.676Z,4.87
2022-08-24T23:00:46.437Z,4.70
2022-08-24T23:03:14.811Z,5.67
2022-08-24T23:05:44.673Z,4.33
2022-08-24T23:08:12.983Z,5.73
2022-08-24T23:10:41.183Z,5.93
2022-08-24T23:13:09.144Z,4.83
2022-08-24T23:15:36.979Z,4.80
2022-08-24T23:18:25.480Z,5.70
2022-08-24T23:20:53.860Z,5.60
2022-08-24T23:23:21.617Z,5.50
2022-08-24T23:25:50.169Z,6.13
2022-08-24T23:28:18.034Z,5.53
2022-08-24T23:30:45.988Z,5.53
2022-08-24T23:33:15.339Z,5.90
2022-08-24T23:35:43.290Z,6.07
2022-08-24T23:38:14.052Z,5.03
2022-08-24T23:40:43.072Z,4.73
2022-08-24T23:43:11.266Z,5.13
2022-08-24T23:45:39.679Z,5.47
2022-08-24T23:48:08.181Z,4.90
2022-08-24T23:50:35.952Z,5.10
2022-08-24T23:53:03.736Z,5.70
2022-08-24T23:55:32.854Z,6.23
2022-08-24T23:58:00.871Z,5.80
